createdAt,value
2022-12-24T00:01:04.045Z,99620.72
2022-12-24T00:03:31.930Z,99627.41
2022-12-24T00:05:58.535Z,99626.06
2022-12-24T00:08:24.992Z,99620.94
2022-12-24T00:10:51.466Z,99619.56
2022-12-24T00:13:17.938Z,99624.34
2022-12-24T00:15:44.335Z,99621.13
2022-12-24T00:18:10.729Z,99630.47
2022-12-24T00:20:37.489Z,99625.59
2022-12-24T00:23:04.093Z,99625.84
2022-12-24T00:25:35.660Z,99624.47
2022-12-24T00:28:02.051Z,99623.66
2022-12-24T00:30:28.782Z,99626.88
2022-12-24T00:32:55.956Z,99623.59
2022-12-24T00:35:22.323Z,99626.81
2022-12-24T00:37:49.025Z,99625.41
2022-12-24T00:40:15.473Z,99622.16
2022-12-24T00:42:42.122Z,99619.72
2022-12-24T00:45:08.673Z,99616.50
2022-12-24T00:47:35.020Z,99628.28
2022-12-24T00:50:01.814Z,99624.22
2022-12-24T00:52:28.611Z,99630.66
2022-12-24T00:54:55.419Z,99630.09
2022-12-24T00:57:21.789Z,99628.72
2022-12-24T00:59:48.289Z,99628.97
2022-12-24T01:02:14.813Z,99626.78
2022-12-24T01:04:41.553Z,99635.06
2022-12-24T01:07:08.351Z,99641.50
2022-12-24T01:09:34.748Z,99639.28
2022-12-24T01:12:01.548Z,99643.03
2022-12-24T01:14:27.977Z,99638.75
2022-12-24T01:16:55.405Z,99636.53
2022-12-24T01:19:21.872Z,99640.28
2022-12-24T01:21:48.223Z,99643.22
2022-12-24T01:24:15.240Z,99654.19
2022-12-24T01:26:41.831Z,99649.88
2022-12-24T01:29:08.334Z,99652.81
2022-12-24T01:31:35.950Z,99659.22
2022-12-24T01:34:02.467Z,99656.78
2022-12-24T01:36:29.316Z,99663.22
2022-12-24T01:38:55.780Z,99657.28
2022-12-24T01:41:22.191Z,99658.34
2022-12-24T01:43:49.276Z,99650.53
2022-12-24T01:46:15.662Z,99658.81
2022-12-24T01:48:42.186Z,99665.25
2022-12-24T01:51:08.607Z,99670.06
2022-12-24T01:53:35.277Z,99663.03
2022-12-24T01:56:01.636Z,99668.66
2022-12-24T01:58:30.210Z,99676.69
2022-12-24T02:00:58.935Z,99675.06
2022-12-24T02:03:25.817Z,99679.88
2022-12-24T02:05:52.693Z,99684.41
2022-12-24T02:08:19.540Z,99681.97
2022-12-24T02:10:45.936Z,99684.91
2022-12-24T02:13:12.291Z,99691.31
2022-12-24T02:15:38.758Z,99688.88
2022-12-24T02:18:06.185Z,99691.56
2022-12-24T02:20:33.632Z,99692.84
2022-12-24T02:23:01.379Z,99689.38
2022-12-24T02:25:27.783Z,99693.91
2022-12-24T02:27:54.128Z,99705.69
2022-12-24T02:30:21.037Z,99705.13
2022-12-24T02:32:47.403Z,99707.78
2022-12-24T02:35:14.110Z,99707.00
2022-12-24T02:37:40.515Z,99711.75
2022-12-24T02:40:16.051Z,99717.09
2022-12-24T02:42:43.861Z,99712.81
2022-12-24T02:45:10.239Z,99724.81
2022-12-24T02:47:37.151Z,99725.63
2022-12-24T02:50:03.947Z,99730.41
2022-12-24T02:52:30.428Z,99737.41
2022-12-24T02:54:57.031Z,99726.13
2022-12-24T02:57:23.825Z,99739.53
2022-12-24T02:59:50.383Z,99744.06
2022-12-24T03:02:17.072Z,99749.41
2022-12-24T03:04:43.552Z,99749.66
2022-12-24T03:07:09.964Z,99751.31
2022-12-24T03:09:36.355Z,99761.44
2022-12-24T03:12:02.704Z,99755.25
2022-12-24T03:14:29.220Z,99761.44
2022-12-24T03:16:56.123Z,99763.56
2022-12-24T03:19:23.643Z,99768.09
2022-12-24T03:21:49.988Z,99775.28
2022-12-24T03:24:16.960Z,99786.84
2022-12-24T03:26:43.943Z,99793.25
2022-12-24T03:29:10.500Z,99798.63
2022-12-24T03:31:37.081Z,99795.34
2022-12-24T03:34:04.674Z,99790.22
2022-12-24T03:36:31.154Z,99790.50
2022-12-24T03:38:58.061Z,99797.47
2022-12-24T03:41:25.093Z,99795.84
2022-12-24T03:43:52.025Z,99802.22
2022-12-24T03:46:18.916Z,99808.66
2022-12-24T03:48:45.721Z,99821.22
2022-12-24T03:51:12.055Z,99818.81
2022-12-24T03:53:38.707Z,99832.19
2022-12-24T03:56:05.639Z,99828.69
2022-12-24T03:58:32.130Z,99831.59
2022-12-24T04:00:58.843Z,99843.38
2022-12-24T04:03:25.523Z,99836.19
2022-12-24T04:05:52.168Z,99848.75
2022-12-24T04:08:18.931Z,99847.91
2022-12-24T04:10:45.403Z,99851.66
2022-12-24T04:13:12.445Z,99843.63
2022-12-24T04:15:38.913Z,99843.84
2022-12-24T04:18:05.586Z,99848.41
2022-12-24T04:20:32.416Z,99855.63
2022-12-24T04:22:58.822Z,99865.50
2022-12-24T04:25:25.186Z,99868.19
2022-12-24T04:27:52.393Z,99876.47
2022-12-24T04:30:18.744Z,99881.81
2022-12-24T04:32:45.630Z,99881.81
2022-12-24T04:35:12.095Z,99889.28
2022-12-24T04:37:38.492Z,99883.38
2022-12-24T04:40:04.977Z,99887.66
2022-12-24T04:42:31.712Z,99891.41
2022-12-24T04:44:58.706Z,99893.25
2022-12-24T04:47:25.242Z,99895.09
2022-12-24T04:49:51.691Z,99888.13
2022-12-24T04:52:18.173Z,99901.53
2022-12-24T04:54:45.045Z,99907.94
2022-12-24T04:57:12.431Z,99910.00
2022-12-24T04:59:39.441Z,99915.38
2022-12-24T05:02:06.009Z,99915.38
2022-12-24T05:04:32.841Z,99927.97
2022-12-24T05:06:59.165Z,99927.16
2022-12-24T05:09:26.081Z,99935.19
2022-12-24T05:11:53.056Z,99928.19
2022-12-24T05:14:19.912Z,99932.72
2022-12-24T05:16:46.585Z,99941.81
2022-12-24T05:19:13.140Z,99943.66
2022-12-24T05:21:39.679Z,99958.72
2022-12-24T05:24:06.104Z,99956.25
2022-12-24T05:26:32.871Z,99953.59
2022-12-24T05:28:59.560Z,99951.97
2022-12-24T05:31:26.153Z,99952.19
2022-12-24T05:33:52.677Z,99957.56
2022-12-24T05:36:19.045Z,99957.56
2022-12-24T05:38:45.511Z,99963.94
2022-12-24T05:41:12.334Z,99970.34
2022-12-24T05:43:39.097Z,99971.16
2022-12-24T05:46:05.698Z,99982.09
2022-12-24T05:48:32.115Z,99985.63
2022-12-24T05:50:58.817Z,99983.16
2022-12-24T05:53:25.219Z,99990.97
2022-12-24T05:55:51.936Z,99998.19
2022-12-24T05:58:19.224Z,99996.56
2022-12-24T06:00:45.908Z,99992.25
2022-12-24T06:03:12.425Z,100002.13
2022-12-24T06:05:38.869Z,100013.69
2022-12-24T06:08:05.799Z,100016.56
2022-12-24T06:10:35.137Z,100023.78
2022-12-24T06:13:01.730Z,100023.78
2022-12-24T06:15:28.825Z,100022.97
2022-12-24T06:17:55.247Z,100025.63
2022-12-24T06:20:22.189Z,100026.47
2022-12-24T06:22:49.246Z,100033.09
2022-12-24T06:25:15.730Z,100032.03
2022-12-24T06:27:45.221Z,100041.97
2022-12-24T06:30:11.663Z,100040.31
2022-12-24T06:32:38.727Z,100046.72
2022-12-24T06:35:07.371Z,100048.56
2022-12-24T06:37:36.337Z,100045.09
2022-12-24T06:40:03.328Z,100057.66
2022-12-24T06:42:32.901Z,100053.13
2022-12-24T06:45:03.937Z,100064.88
2022-12-24T06:47:34.771Z,100072.09
2022-12-24T06:50:01.564Z,100080.34
2022-12-24T06:52:28.586Z,100078.50
2022-12-24T06:54:58.187Z,100075.81
2022-12-24T06:57:25.032Z,100077.66
2022-12-24T06:59:51.817Z,100073.38
2022-12-24T07:02:19.503Z,100079.78
2022-12-24T07:04:46.029Z,100086.16
2022-12-24T07:07:12.500Z,100088.81
2022-12-24T07:09:38.973Z,100092.56
2022-12-24T07:12:05.338Z,100094.19
2022-12-24T07:14:32.008Z,100108.63
2022-12-24T07:16:59.366Z,100108.63
2022-12-24T07:19:26.296Z,100120.16
2022-12-24T07:24:44.999Z,100113.41
2022-12-24T07:27:12.554Z,100107.22
2022-12-24T07:29:39.529Z,100119.78
2022-12-24T07:32:06.132Z,100133.41
2022-12-24T07:34:32.909Z,100128.84
2022-12-24T07:36:59.973Z,100135.38
2022-12-24T07:39:26.819Z,100138.56
2022-12-24T07:41:53.341Z,100140.69
2022-12-24T07:47:04.658Z,100148.91
2022-12-24T07:49:31.241Z,100147.28
2022-12-24T07:51:58.278Z,100149.84
2022-12-24T07:54:25.131Z,100148.94
2022-12-24T07:56:51.619Z,100149.31
2022-12-24T08:02:03.006Z,100158.16
2022-12-24T08:04:30.756Z,100165.53
2022-12-24T08:07:02.495Z,100174.53
2022-12-24T08:09:29.333Z,100179.53
2022-12-24T08:11:55.753Z,100180.09
2022-12-24T08:14:22.511Z,100182.69
2022-12-24T08:16:49.161Z,100183.84
2022-12-24T08:19:15.756Z,100179.66
2022-12-24T08:21:42.572Z,100175.22
2022-12-24T08:24:08.912Z,100181.75
2022-12-24T08:26:35.415Z,100188.28
2022-12-24T08:29:01.776Z,100191.91
2022-12-24T08:31:28.323Z,100195.25
2022-12-24T08:33:54.873Z,100195.97
2022-12-24T08:36:21.237Z,100194.44
2022-12-24T08:38:47.691Z,100198.84
2022-12-24T08:41:17.417Z,100197.09
2022-12-24T08:43:43.860Z,100200.47
2022-12-24T08:46:10.313Z,100212.16
2022-12-24T08:51:20.701Z,100208.41
2022-12-24T08:53:47.135Z,100219.84
2022-12-24T08:56:13.812Z,100216.66
2022-12-24T08:58:41.509Z,100214.09
2022-12-24T09:01:08.202Z,100220.34
2022-12-24T09:03:34.772Z,100216.13
2022-12-24T09:06:01.448Z,100218.91
2022-12-24T09:08:28.089Z,100225.44
2022-12-24T09:10:55.029Z,100225.81
2022-12-24T09:13:24.947Z,100234.44
2022-12-24T09:15:51.450Z,100231.50
2022-12-24T09:18:17.869Z,100235.03
2022-12-24T09:20:46.857Z,100236.41
2022-12-24T09:23:13.751Z,100230.53
2022-12-24T09:25:40.159Z,100238.13
2022-12-24T09:28:06.867Z,100242.19
2022-12-24T09:30:33.573Z,100246.03
2022-12-24T09:33:00.162Z,100249.03
2022-12-24T09:35:26.835Z,100253.91
2022-12-24T09:37:57.959Z,100254.25
2022-12-24T09:40:27.041Z,100247.81
2022-12-24T09:42:56.651Z,100262.63
2022-12-24T09:45:23.195Z,100264.84
2022-12-24T09:47:49.865Z,100259.00
2022-12-24T09:50:16.407Z,100259.81
2022-12-24T09:52:43.056Z,100264.94
2022-12-24T09:55:09.986Z,100278.25
2022-12-24T09:57:37.132Z,100277.78
2022-12-24T10:00:03.581Z,100273.31
2022-12-24T10:02:30.118Z,100280.31
2022-12-24T10:07:36.923Z,100300.47
2022-12-24T10:10:03.540Z,100294.00
2022-12-24T10:12:30.137Z,100296.94
2022-12-24T10:14:56.567Z,100289.94
2022-12-24T10:17:23.592Z,100299.88
2022-12-24T10:19:50.076Z,100302.09
2022-12-24T10:25:07.623Z,100297.94
2022-12-24T10:27:35.217Z,100297.78
2022-12-24T10:30:01.680Z,100304.31
2022-12-24T10:32:28.240Z,100303.16
2022-12-24T10:34:54.911Z,100310.66
2022-12-24T10:37:21.310Z,100314.66
2022-12-24T10:39:47.793Z,100323.22
2022-12-24T10:42:14.187Z,100322.38
2022-12-24T10:44:40.967Z,100326.38
2022-12-24T10:47:07.822Z,100341.97
2022-12-24T10:49:34.546Z,100339.41
2022-12-24T10:52:01.188Z,100345.50
2022-12-24T10:54:28.064Z,100341.88
2022-12-24T10:56:55.420Z,100345.63
2022-12-24T10:59:22.182Z,100360.59
2022-12-24T11:01:48.811Z,100361.91
2022-12-24T11:04:15.484Z,100360.50
2022-12-24T11:06:49.133Z,100360.97
2022-12-24T11:09:15.656Z,100375.47
2022-12-24T11:11:47.607Z,100368.94
2022-12-24T11:14:14.021Z,100374.78
2022-12-24T11:16:40.865Z,100380.41
2022-12-24T11:19:07.389Z,100391.66
2022-12-24T11:21:33.867Z,100390.47
2022-12-24T11:24:00.640Z,100396.31
2022-12-24T11:26:27.322Z,100394.94
2022-12-24T11:28:53.773Z,100395.41
2022-12-24T11:31:20.402Z,100395.06
2022-12-24T11:33:46.796Z,100402.53
2022-12-24T11:36:13.238Z,100412.72
2022-12-24T11:38:39.661Z,100413.16
2022-12-24T11:41:06.111Z,100406.41
2022-12-24T11:43:32.519Z,100409.53
2022-12-24T11:45:59.344Z,100415.19
2022-12-24T11:48:25.999Z,100415.41
2022-12-24T11:50:52.751Z,100423.69
2022-12-24T11:53:19.360Z,100419.38
2022-12-24T11:55:45.759Z,100432.22
2022-12-24T11:58:12.868Z,100434.09
2022-12-24T12:00:39.587Z,100438.06
2022-12-24T12:03:06.078Z,100434.78
2022-12-24T12:05:33.291Z,100448.47
2022-12-24T12:08:00.111Z,100451.38
2022-12-24T12:10:26.614Z,100433.63
2022-12-24T12:12:53.025Z,100451.84
2022-12-24T12:15:19.767Z,100446.72
2022-12-24T12:17:46.680Z,100451.25
2022-12-24T12:20:13.237Z,100451.72
2022-12-24T12:22:40.299Z,100450.91
2022-12-24T12:25:06.996Z,100454.66
2022-12-24T12:27:33.419Z,100455.34
2022-12-24T12:30:00.456Z,100465.25
2022-12-24T12:32:27.639Z,100455.56
2022-12-24T12:34:54.146Z,100469.22
2022-12-24T12:37:20.900Z,100466.75
2022-12-24T12:39:47.938Z,100472.41
2022-12-24T12:42:14.849Z,100473.41
2022-12-24T12:44:41.655Z,100478.00
2022-12-24T12:47:08.565Z,100476.34
2022-12-24T12:49:35.084Z,100482.75
2022-12-24T12:52:04.192Z,100484.88
2022-12-24T12:54:30.789Z,100489.41
2022-12-24T12:56:57.313Z,100491.53
2022-12-24T12:59:24.063Z,100499.81
2022-12-24T13:01:50.726Z,100498.94
2022-12-24T13:04:17.185Z,100504.53
2022-12-24T13:06:43.674Z,100508.28
2022-12-24T13:09:10.115Z,100509.34
2022-12-24T13:11:36.525Z,100507.69
2022-12-24T13:14:02.951Z,100507.09
2022-12-24T13:16:29.413Z,100502.78
2022-12-24T13:18:58.185Z,100501.16
2022-12-24T13:21:24.494Z,100512.91
2022-12-24T13:23:51.267Z,100506.75
2022-12-24T13:26:17.797Z,100508.81
2022-12-24T13:28:44.596Z,100513.41
2022-12-24T13:31:11.159Z,100509.31
2022-12-24T13:33:37.884Z,100508.47
2022-12-24T13:36:04.631Z,100514.91
2022-12-24T13:38:31.023Z,100517.81
2022-12-24T13:40:57.393Z,100524.22
2022-12-24T13:43:24.220Z,100533.06
2022-12-24T13:45:51.257Z,100527.94
2022-12-24T13:48:17.821Z,100537.25
2022-12-24T13:50:44.220Z,100530.25
2022-12-24T13:53:12.077Z,100538.31
2022-12-24T13:55:38.490Z,100543.09
2022-12-24T13:58:05.191Z,100548.69
2022-12-24T14:00:31.889Z,100554.06
2022-12-24T14:02:58.839Z,100549.75
2022-12-24T14:05:25.337Z,100548.09
2022-12-24T14:07:52.106Z,100566.06
2022-12-24T14:10:18.616Z,100560.72
2022-12-24T14:12:45.407Z,100575.19
2022-12-24T14:15:12.306Z,100578.88
2022-12-24T14:17:38.722Z,100587.16
2022-12-24T14:20:06.042Z,100589.03
2022-12-24T14:22:32.716Z,100597.91
2022-12-24T14:24:59.681Z,100596.25
2022-12-24T14:27:26.150Z,100599.16
2022-12-24T14:29:52.749Z,100610.94
2022-12-24T14:32:19.174Z,100602.06
2022-12-24T14:34:45.674Z,100605.81
2022-12-24T14:37:12.729Z,100601.50
2022-12-24T14:39:39.123Z,100604.19
2022-12-24T14:42:05.973Z,100602.53
2022-12-24T14:44:35.720Z,100603.59
2022-12-24T14:47:02.316Z,100607.28
2022-12-24T14:49:29.105Z,100611.88
2022-12-24T14:51:55.731Z,100615.56
2022-12-24T14:54:22.152Z,100623.63
2022-12-24T14:56:48.888Z,100626.56
2022-12-24T14:59:15.610Z,100626.56
2022-12-24T15:01:42.451Z,100632.13
2022-12-24T15:04:09.402Z,100646.56
2022-12-24T15:06:35.914Z,100644.94
2022-12-24T15:09:02.211Z,100636.88
2022-12-24T15:11:28.597Z,100640.41
2022-12-24T15:13:55.423Z,100645.16
2022-12-24T15:16:21.849Z,100647.03
2022-12-24T15:18:48.283Z,100654.25
2022-12-24T15:21:14.699Z,100663.34
2022-12-24T15:23:41.365Z,100665.41
2022-12-24T15:26:07.764Z,100655.53
2022-12-24T15:28:39.643Z,100653.66
2022-12-24T15:31:06.096Z,100653.06
2022-12-24T15:33:32.883Z,100656.78
2022-12-24T15:36:00.002Z,100662.16
2022-12-24T15:38:26.985Z,100671.25
2022-12-24T15:40:53.618Z,100675.78
2022-12-24T15:43:20.493Z,100685.72
2022-12-24T15:45:47.777Z,100677.66
2022-12-24T15:48:14.504Z,100689.41
2022-12-24T15:50:41.222Z,100685.94
2022-12-24T15:53:20.135Z,100689.88
2022-12-24T15:55:48.678Z,100694.41
2022-12-24T15:58:15.065Z,100703.28
2022-12-24T16:00:41.548Z,100698.94
2022-12-24T16:03:08.864Z,100700.81
2022-12-24T16:05:35.621Z,100714.25
2022-12-24T16:08:02.111Z,100717.94
2022-12-24T16:10:28.520Z,100713.41
2022-12-24T16:12:57.171Z,100720.03
2022-12-24T16:15:24.545Z,100722.72
2022-12-24T16:17:51.347Z,100719.19
2022-12-24T16:20:18.098Z,100721.09
2022-12-24T16:22:44.851Z,100723.75
2022-12-24T16:28:08.281Z,100733.06
2022-12-24T16:30:38.068Z,100742.97
2022-12-24T16:33:04.696Z,100745.66
2022-12-24T16:35:31.056Z,100748.53
2022-12-24T16:37:57.816Z,100746.91
2022-12-24T16:40:27.755Z,100740.72
2022-12-24T16:42:55.355Z,100745.06
2022-12-24T16:45:22.068Z,100745.28
2022-12-24T16:47:48.427Z,100754.34
2022-12-24T16:50:14.746Z,100756.44
2022-12-24T16:52:41.361Z,100754.59
2022-12-24T16:55:08.112Z,100744.88
2022-12-24T16:57:35.207Z,100757.47
2022-12-24T17:00:01.888Z,100745.91
2022-12-24T17:02:28.374Z,100748.81
2022-12-24T17:04:54.932Z,100762.00
2022-12-24T17:07:21.445Z,100759.53
2022-12-24T17:09:47.874Z,100762.44
2022-12-24T17:12:14.266Z,100758.13
2022-12-24T17:14:40.673Z,100765.13
2022-12-24T17:17:07.058Z,100766.16
2022-12-24T17:19:33.767Z,100760.00
2022-12-24T17:22:00.149Z,100759.16
2022-12-24T17:24:26.596Z,100771.75
2022-12-24T17:26:52.950Z,100776.31
2022-12-24T17:29:20.132Z,100772.56
2022-12-24T17:31:46.521Z,100778.38
2022-12-24T17:34:13.192Z,100775.47
2022-12-24T17:36:39.794Z,100784.78
2022-12-24T17:39:06.743Z,100789.31
2022-12-24T17:41:33.453Z,100789.31
2022-12-24T17:44:00.238Z,100793.88
2022-12-24T17:46:26.657Z,100791.19
2022-12-24T17:48:54.339Z,100782.53
2022-12-24T17:51:21.389Z,100783.34
2022-12-24T17:53:47.801Z,100787.88
2022-12-24T17:56:14.090Z,100790.78
2022-12-24T17:58:40.913Z,100799.06
2022-12-24T18:01:07.473Z,100799.28
2022-12-24T18:03:34.261Z,100802.75
2022-12-24T18:06:01.104Z,100818.03
2022-12-24T18:08:28.212Z,100818.84
2022-12-24T18:10:54.603Z,100811.84
2022-12-24T18:13:21.190Z,100810.22
2022-12-24T18:15:47.757Z,100824.66
2022-12-24T18:18:14.420Z,100830.03
2022-12-24T18:20:46.303Z,100833.72
2022-12-24T18:23:13.372Z,100839.91
2022-12-24T18:25:39.846Z,100835.38
2022-12-24T18:28:06.183Z,100840.13
2022-12-24T18:30:32.997Z,100840.34
2022-12-24T18:32:59.831Z,100844.91
2022-12-24T18:35:26.331Z,100842.00
2022-12-24T18:37:53.004Z,100844.91
2022-12-24T18:40:19.534Z,100847.56
2022-12-24T18:42:45.857Z,100853.97
2022-12-24T18:45:13.179Z,100855.00
2022-12-24T18:47:40.364Z,100868.41
2022-12-24T18:50:07.413Z,100865.94
2022-12-24T18:52:35.048Z,100866.75
2022-12-24T18:55:01.616Z,100878.31
2022-12-24T18:57:27.997Z,100878.53
2022-12-24T18:59:54.880Z,100880.34
2022-12-24T19:02:23.363Z,100881.38
2022-12-24T19:04:50.090Z,100879.53
2022-12-24T19:07:17.055Z,100877.88
2022-12-24T19:09:43.350Z,100892.31
2022-12-24T19:12:09.983Z,100883.44
2022-12-24T19:14:36.734Z,100889.84
2022-12-24T19:17:03.832Z,100889.84
2022-12-24T19:19:30.705Z,100891.72
2022-12-24T19:21:57.136Z,100896.25
2022-12-24T19:24:23.563Z,100898.09
2022-12-24T19:26:50.203Z,100895.41
2022-12-24T19:29:16.560Z,100903.44
2022-12-24T19:31:43.352Z,100911.72
2022-12-24T19:34:09.795Z,100911.72
2022-12-24T19:36:36.291Z,100918.09
2022-12-24T19:39:02.732Z,100924.50
2022-12-24T19:41:29.316Z,100919.97
2022-12-24T19:43:56.224Z,100921.81
2022-12-24T19:46:22.997Z,100921.00
2022-12-24T19:48:49.610Z,100921.22
2022-12-24T19:51:16.048Z,100919.34
2022-12-24T19:53:42.598Z,100930.91
2022-12-24T19:56:09.287Z,100939.75
2022-12-24T19:58:36.517Z,100933.78
2022-12-24T20:01:04.266Z,100937.53
2022-12-24T20:03:33.075Z,100934.84
2022-12-24T20:05:59.967Z,100947.41
2022-12-24T20:11:10.915Z,100951.94
2022-12-24T20:13:37.578Z,100949.50
2022-12-24T20:16:04.500Z,100949.50
2022-12-24T20:18:31.891Z,100947.63
2022-12-24T20:20:58.265Z,100946.81
2022-12-24T20:23:24.609Z,100941.44
2022-12-24T20:25:51.295Z,100940.63
2022-12-24T20:28:17.659Z,100938.97
2022-12-24T20:30:44.151Z,100949.69
2022-12-24T20:33:10.808Z,100948.84
2022-12-24T20:35:37.234Z,100951.75
2022-12-24T20:38:03.807Z,100951.75
2022-12-24T20:40:30.551Z,100950.09
2022-12-24T20:42:56.892Z,100952.78
2022-12-24T20:45:23.691Z,100958.16
2022-12-24T20:47:50.339Z,100956.31
2022-12-24T20:50:17.096Z,100959.19
2022-12-24T20:52:43.737Z,100959.19
2022-12-24T20:55:10.140Z,100968.25
2022-12-24T20:57:36.959Z,100964.75
2022-12-24T21:00:03.642Z,100970.13
2022-12-24T21:02:30.314Z,100974.63
2022-12-24T21:05:02.022Z,100980.84
2022-12-24T21:07:29.017Z,100977.31
2022-12-24T21:09:56.006Z,100975.69
2022-12-24T21:12:22.320Z,100975.69
2022-12-24T21:14:48.704Z,100978.34
2022-12-24T21:17:16.150Z,100974.03
2022-12-24T21:19:42.951Z,100975.69
2022-12-24T21:22:09.284Z,100967.84
2022-12-24T21:24:35.882Z,100965.16
2022-12-24T21:27:02.219Z,100965.38
2022-12-24T21:29:28.594Z,100964.34
2022-12-24T21:31:55.255Z,100965.38
2022-12-24T21:34:21.610Z,100978.75
2022-12-24T21:36:48.345Z,100977.75
2022-12-24T21:39:15.234Z,100986.22
2022-12-24T21:41:41.736Z,100979.81
2022-12-24T21:44:08.625Z,100985.16
2022-12-24T21:46:35.421Z,100987.84
2022-12-24T21:49:02.164Z,100989.72
2022-12-24T21:51:28.758Z,101004.13
2022-12-24T21:53:55.459Z,100994.25
2022-12-24T21:56:22.281Z,101002.28
2022-12-24T21:58:49.116Z,100993.41
2022-12-24T22:01:15.542Z,100997.97
2022-12-24T22:03:41.995Z,101001.66
2022-12-24T22:06:08.449Z,101004.56
2022-12-24T22:08:34.820Z,101012.38
2022-12-24T22:11:01.733Z,101018.75
2022-12-24T22:13:28.123Z,101026.81
2022-12-24T22:15:54.664Z,101027.00
2022-12-24T22:18:21.051Z,101026.00
2022-12-24T22:20:47.506Z,101029.69
2022-12-24T22:23:14.105Z,101036.09
2022-12-24T22:25:41.177Z,101030.72
2022-12-24T22:28:08.051Z,101029.91
2022-12-24T22:30:34.507Z,101034.44
2022-12-24T22:33:01.370Z,101037.97
2022-12-24T22:35:27.736Z,101033.41
2022-12-24T22:37:59.550Z,101038.97
2022-12-24T22:40:27.240Z,101045.38
2022-12-24T22:42:54.098Z,101038.16
2022-12-24T22:45:22.560Z,101051.75
2022-12-24T22:47:49.329Z,101041.03
2022-12-24T22:50:18.454Z,101043.72
2022-12-24T22:52:45.444Z,101049.88
2022-12-24T22:55:12.178Z,101063.50
2022-12-24T22:57:38.558Z,101069.69
2022-12-24T23:00:05.167Z,101073.19
2022-12-24T23:02:32.579Z,101071.56
2022-12-24T23:04:59.049Z,101073.41
2022-12-24T23:07:25.511Z,101077.13
2022-12-24T23:09:52.026Z,101087.81
2022-12-24T23:12:21.398Z,101087.81
2022-12-24T23:14:48.288Z,101090.50
2022-12-24T23:17:14.785Z,101094.00
2022-12-24T23:19:41.428Z,101089.66
2022-12-24T23:22:07.867Z,101089.88
2022-12-24T23:24:34.230Z,101096.06
2022-12-24T23:27:00.580Z,101101.44
2022-12-24T23:29:30.041Z,101095.22
2022-12-24T23:31:56.622Z,101094.44
2022-12-24T23:34:23.259Z,101092.75
2022-12-24T23:36:49.808Z,101085.56
2022-12-24T23:39:16.312Z,101090.06
2022-12-24T23:41:42.628Z,101093.78
2022-12-24T23:44:09.289Z,101097.31
2022-12-24T23:46:35.793Z,101101.03
2022-12-24T23:49:02.176Z,101099.97
2022-12-24T23:51:28.541Z,101096.47
2022-12-24T23:53:55.867Z,101097.31
2022-12-24T23:56:22.320Z,101096.66
2022-12-24T23:58:48.632Z,101088.63
